Time;durP1;ratioP1;P1;durP2;ratioP2;P2;SDS_P1;SDS_P2;PMS_P1;PMS_P2;Temp;Humidity;BMP_temperature;BMP_pressure;BME280_temperature;BME280_humidity;BME280_pressure;Samples;Min_cycle;Max_cycle;Signal;HPM_P1;HPM_P2
2021/07/28 00:00:20;;;;;;;13.45;12.18;;;;;;;20.11;97.48;98434.63;4938661;28;102671;-66
2021/07/28 00:02:48;;;;;;;10.18;9.27;;;;;;;20.29;97.66;98439.75;4950846;28;103484;-65
2021/07/28 00:05:18;;;;;;;12.60;11.48;;;;;;;19.92;99.27;98429.72;4954218;28;103944;-66
2021/07/28 00:07:46;;;;;;;12.82;11.63;;;;;;;19.80;100.00;98426.59;4953312;28;103121;-65
2021/07/28 00:10:14;;;;;;;9.57;8.77;;;;;;;20.02;99.11;98416.91;4954728;28;102754;-66
2021/07/28 00:12:42;;;;;;;10.02;9.13;;;;;;;20.10;98.65;98411.50;4953762;28;104334;-65
2021/07/28 00:15:11;;;;;;;10.52;9.45;;;;;;;19.95;99.37;98415.97;4949351;28;107898;-65
2021/07/28 00:17:44;;;;;;;8.32;7.63;;;;;;;19.90;99.55;98410.31;4956978;28;102605;-65
2021/07/28 00:20:18;;;;;;;9.20;8.45;;;;;;;19.88;99.96;98415.84;4951784;28;103092;-64
2021/07/28 00:25:35;;;;;;;9.98;9.07;;;;;;;20.14;97.90;98421.72;4952165;28;103148;-65
2021/07/28 00:28:03;;;;;;;11.02;9.70;;;;;;;20.16;98.66;98411.63;4952220;28;102793;-65
2021/07/28 00:30:32;;;;;;;7.35;6.68;;;;;;;20.23;98.35;98415.28;4952916;28;102850;-65
2021/07/28 00:33:00;;;;;;;9.55;8.73;;;;;;;20.22;98.92;98416.28;4952757;28;103315;-65
2021/07/28 00:35:28;;;;;;;9.63;8.82;;;;;;;20.29;97.97;98429.03;4950412;28;107979;-64
2021/07/28 00:38:02;;;;;;;10.55;9.60;;;;;;;20.27;99.34;98431.06;4954996;28;103880;-65
2021/07/28 00:40:30;;;;;;;10.15;9.25;;;;;;;20.16;99.89;98427.72;4955915;28;102961;-65
2021/07/28 00:43:12;;;;;;;12.15;11.05;;;;;;;20.12;100.00;98430.94;4955488;28;103548;-65
2021/07/28 00:45:40;;;;;;;8.20;7.50;;;;;;;20.18;100.00;98425.69;4958677;28;104320;-65
2021/07/28 00:48:09;;;;;;;9.23;8.43;;;;;;;20.22;99.54;98424.34;4951106;28;102778;-65
2021/07/28 00:50:38;;;;;;;8.55;7.75;;;;;;;20.27;99.42;98433.75;4955785;28;102750;-65
2021/07/28 00:53:16;;;;;;;7.38;6.78;;;;;;;20.29;99.55;98429.03;4961947;28;103464;-64
2021/07/28 00:55:45;;;;;;;7.38;6.78;;;;;;;20.27;100.00;98428.38;4958239;28;104529;-64
2021/07/28 00:58:14;;;;;;;9.40;8.60;;;;;;;20.23;99.86;98423.34;4937886;28;102887;-64
2021/07/28 01:00:42;;;;;;;9.45;8.55;;;;;;;20.26;99.33;98424.00;4962203;28;102723;-64
2021/07/28 01:03:11;;;;;;;8.95;8.18;;;;;;;20.17;98.94;98423.19;4951628;28;104463;-64
2021/07/28 01:05:39;;;;;;;8.50;7.80;;;;;;;20.21;99.77;98419.97;4938595;28;103199;-65
2021/07/28 01:08:09;;;;;;;8.68;7.80;;;;;;;20.26;98.98;98424.00;4958907;28;102723;-65
2021/07/28 01:10:38;;;;;;;9.18;8.27;;;;;;;20.27;99.22;98425.69;4958356;28;102705;-63
2021/07/28 01:13:07;;;;;;;9.82;8.85;;;;;;;20.27;98.20;98428.38;4963102;28;104399;-62
2021/07/28 01:15:42;;;;;;;9.13;8.35;;;;;;;20.10;100.00;98428.44;4959113;28;103134;-62
2021/07/28 01:18:14;;;;;;;8.40;7.70;;;;;;;20.11;100.00;98426.59;4959338;28;102634;-63
2021/07/28 01:20:43;;;;;;;9.27;8.48;;;;;;;20.19;100.00;98426.53;4940255;28;102738;-62
2021/07/28 01:23:20;;;;;;;9.45;8.63;;;;;;;20.19;100.00;98430.06;4959074;28;103191;-62
2021/07/28 01:25:50;;;;;;;11.52;10.52;;;;;;;20.07;100.00;98442.19;4960016;28;103564;-61
2021/07/28 01:28:19;;;;;;;7.05;6.45;;;;;;;20.18;100.00;98449.03;4956438;28;102709;-62
2021/07/28 01:30:58;;;;;;;10.65;9.65;;;;;;;20.18;99.86;98447.16;4959799;28;102881;-61
2021/07/28 01:33:27;;;;;;;10.95;9.90;;;;;;;20.20;100.00;98447.81;4956163;28;104331;-62
2021/07/28 01:35:55;;;;;;;7.47;6.88;;;;;;;20.17;100.00;98448.19;4940137;28;103901;-62
2021/07/28 01:38:26;;;;;;;13.70;12.30;;;;;;;19.73;100.00;98440.88;4961753;28;103835;-60
2021/07/28 01:40:55;;;;;;;9.00;8.30;;;;;;;19.65;100.00;98444.41;4957282;28;102918;-60
2021/07/28 01:43:25;;;;;;;7.38;6.75;;;;;;;19.80;100.00;98441.84;4957982;28;103379;-61
2021/07/28 01:45:54;;;;;;;6.75;6.07;;;;;;;19.63;100.00;98435.72;4960386;28;103147;-60
2021/07/28 01:48:22;;;;;;;6.50;5.90;;;;;;;19.55;99.09;98427.72;4956393;28;102746;-60
2021/07/28 01:50:51;;;;;;;5.97;5.47;;;;;;;19.62;99.55;98434.06;4958706;28;103921;-60
2021/07/28 01:53:19;;;;;;;6.18;5.68;;;;;;;19.51;98.79;98437.94;4967110;28;104450;-61
2021/07/28 01:55:49;;;;;;;5.78;5.28;;;;;;;19.62;98.44;98426.03;4963002;28;104319;-60
2021/07/28 01:58:18;;;;;;;4.60;4.20;;;;;;;19.68;97.24;98422.63;4959360;28;102681;-61
2021/07/28 02:00:47;;;;;;;4.95;4.55;;;;;;;19.69;97.91;98424.31;4964259;28;102750;-62
2021/07/28 02:03:15;;;;;;;5.10;4.70;;;;;;;19.73;97.71;98424.81;4935034;28;103343;-62
2021/07/28 02:05:44;;;;;;;5.22;4.80;;;;;;;19.71;97.08;98422.28;4965685;28;103464;-63
2021/07/28 02:08:15;;;;;;;4.57;4.22;;;;;;;19.73;97.97;98420.28;4966077;28;102951;-62
2021/07/28 02:10:46;;;;;;;5.30;4.88;;;;;;;19.68;98.04;98415.44;4968112;28;102617;-62
2021/07/28 02:13:17;;;;;;;4.47;4.18;;;;;;;19.65;97.98;98422.97;4968525;28;103336;-62
2021/07/28 02:15:46;;;;;;;4.63;4.22;;;;;;;19.70;97.62;98414.44;4952622;28;106102;-62
2021/07/28 02:18:14;;;;;;;5.90;5.40;;;;;;;19.73;97.71;98420.28;4960378;28;102684;-62
2021/07/28 02:20:42;;;;;;;4.88;4.53;;;;;;;19.63;98.86;98420.50;4964687;28;102662;-63
2021/07/28 02:23:10;;;;;;;5.40;4.95;;;;;;;19.65;98.56;98423.81;4963651;28;103409;-63
2021/07/28 02:25:38;;;;;;;5.18;4.78;;;;;;;19.64;98.34;98402.56;4968968;28;103885;-63
2021/07/28 02:28:06;;;;;;;4.40;4.00;;;;;;;19.66;98.46;98400.53;4966417;28;103200;-63
2021/07/28 02:30:36;;;;;;;5.15;4.55;;;;;;;19.62;97.76;98405.41;4968736;28;102748;-63
2021/07/28 02:33:08;;;;;;;4.60;4.30;;;;;;;19.61;98.08;98405.59;4967260;28;103900;-63
2021/07/28 02:35:36;;;;;;;6.30;5.72;;;;;;;19.48;98.23;98406.13;4963412;28;104325;-62
2021/07/28 02:38:04;;;;;;;5.80;5.35;;;;;;;19.48;98.52;98405.31;4965341;28;102596;-62
2021/07/28 02:40:32;;;;;;;4.63;4.00;;;;;;;19.52;98.39;98412.00;4967544;28;102685;-62
2021/07/28 02:43:00;;;;;;;6.55;6.00;;;;;;;19.46;98.79;98415.34;4952612;28;103941;-62
2021/07/28 02:45:28;;;;;;;6.00;5.47;;;;;;;19.34;99.40;98414.06;4965910;28;103794;-63
2021/07/28 02:47:58;;;;;;;6.80;6.18;;;;;;;18.99;100.00;98413.47;4965213;28;102955;-63
2021/07/28 02:50:26;;;;;;;6.85;6.25;;;;;;;18.70;100.00;98410.50;4968228;28;102803;-63
2021/07/28 02:52:54;;;;;;;7.28;6.60;;;;;;;18.75;100.00;98407.34;4959633;28;103529;-61
2021/07/28 02:55:22;;;;;;;5.35;4.93;;;;;;;18.93;100.00;98411.47;4965055;28;104434;-61
2021/07/28 02:57:50;;;;;;;7.07;6.45;;;;;;;18.83;100.00;98405.47;4970774;28;102679;-61
2021/07/28 03:00:18;;;;;;;4.72;4.43;;;;;;;19.00;100.00;98417.81;4966374;28;102679;-62
2021/07/28 03:02:46;;;;;;;5.15;4.60;;;;;;;19.09;100.00;98406.06;4970970;28;105631;-61
2021/07/28 03:05:16;;;;;;;5.65;5.15;;;;;;;19.09;100.00;98408.75;4951414;28;103366;-61
2021/07/28 03:07:44;;;;;;;6.47;5.97;;;;;;;19.10;99.57;98412.28;4953597;28;102658;-61
2021/07/28 03:10:13;;;;;;;5.97;5.57;;;;;;;18.93;100.00;98411.47;4965367;28;103903;-61
2021/07/28 03:12:41;;;;;;;7.45;6.63;;;;;;;18.73;100.00;98404.81;4964147;28;104500;-62
2021/07/28 03:15:09;;;;;;;5.72;5.22;;;;;;;18.73;100.00;98402.13;4946379;28;104492;-62
2021/07/28 03:17:37;;;;;;;5.30;4.90;;;;;;;18.80;100.00;98404.97;4961961;28;102833;-65
2021/07/28 03:20:06;;;;;;;7.43;6.78;;;;;;;18.55;100.00;98396.16;4964605;28;102860;-65
2021/07/28 03:22:36;;;;;;;6.18;5.60;;;;;;;18.51;100.00;98398.31;4965058;28;105104;-62
2021/07/28 03:25:05;;;;;;;5.65;5.15;;;;;;;18.60;100.00;98401.81;4962708;28;103135;-63
2021/07/28 03:27:33;;;;;;;7.88;7.28;;;;;;;18.48;100.00;98411.19;4949632;28;102728;-62
2021/07/28 03:30:01;;;;;;;8.40;7.60;;;;;;;18.38;100.00;98405.97;4965257;28;102863;-63
2021/07/28 03:32:29;;;;;;;6.78;6.18;;;;;;;18.41;100.00;98415.50;4969951;28;103523;-65
2021/07/28 03:34:58;;;;;;;6.13;5.60;;;;;;;18.47;100.00;98412.97;4946984;28;104449;-66
2021/07/28 03:37:26;;;;;;;5.40;4.90;;;;;;;18.49;100.00;98410.19;4967916;28;103033;-66
2021/07/28 03:40:01;;;;;;;6.30;5.70;;;;;;;18.55;100.00;98412.19;4964329;28;102818;-66
2021/07/28 03:42:29;;;;;;;6.40;5.82;;;;;;;18.54;100.00;98410.50;4954410;28;106266;-66
2021/07/28 03:44:58;;;;;;;6.05;5.45;;;;;;;18.63;100.00;98416.69;4969283;28;103271;-64
2021/07/28 03:47:26;;;;;;;5.15;4.70;;;;;;;18.66;100.00;98419.03;4970738;28;104684;-66
2021/07/28 03:49:54;;;;;;;6.65;5.97;;;;;;;18.67;100.00;98426.03;4954760;28;103185;-61
2021/07/28 03:52:22;;;;;;;5.15;4.72;;;;;;;18.67;100.00;98416.19;4955898;28;105443;-61
2021/07/28 03:54:51;;;;;;;4.97;4.55;;;;;;;18.73;100.00;98415.50;4963609;28;104244;-61
2021/07/28 03:57:21;;;;;;;6.68;6.15;;;;;;;18.76;100.00;98411.66;4945706;28;102596;-61
2021/07/28 03:59:49;;;;;;;5.35;4.85;;;;;;;18.80;100.00;98419.19;4958814;28;103823;-61
2021/07/28 04:02:17;;;;;;;5.05;4.55;;;;;;;18.91;100.00;98418.00;4957423;28;103238;-62
2021/07/28 04:04:45;;;;;;;6.20;5.70;;;;;;;18.94;100.00;98421.19;4961913;28;103084;-62
2021/07/28 04:07:13;;;;;;;6.47;5.45;;;;;;;18.88;100.00;98421.03;4959273;28;102648;-62
2021/07/28 04:09:42;;;;;;;5.78;5.28;;;;;;;18.79;100.00;98419.34;4964976;28;102708;-62
2021/07/28 04:12:10;;;;;;;6.68;6.13;;;;;;;18.79;100.00;98420.19;4965147;28;104413;-62
2021/07/28 04:14:40;;;;;;;7.05;6.47;;;;;;;18.55;100.00;98416.72;4962416;28;103609;-62
2021/07/28 04:17:08;;;;;;;5.78;5.15;;;;;;;18.63;100.00;98430.91;4965782;28;102659;-62
2021/07/28 04:19:36;;;;;;;4.72;4.32;;;;;;;18.73;100.00;98439.59;4950170;28;102612;-63
2021/07/28 04:22:06;;;;;;;5.03;4.63;;;;;;;18.82;100.00;98427.88;4944744;28;103810;-63
2021/07/28 04:24:39;;;;;;;6.40;5.80;;;;;;;18.85;100.00;98418.69;4929502;28;103459;-64
2021/07/28 04:27:08;;;;;;;8.60;7.78;;;;;;;18.77;100.00;98422.22;4947248;28;102695;-63
2021/07/28 04:29:36;;;;;;;10.93;9.80;;;;;;;18.53;100.00;98419.53;4958020;28;102721;-62
2021/07/28 04:32:08;;;;;;;8.57;7.75;;;;;;;18.47;100.00;98422.84;4950927;28;103424;-62
2021/07/28 04:34:37;;;;;;;5.55;5.15;;;;;;;18.70;100.00;98431.06;4950053;28;103576;-62
2021/07/28 04:37:06;;;;;;;4.90;4.50;;;;;;;18.86;100.00;98437.22;4949890;28;102731;-61
2021/07/28 04:39:34;;;;;;;7.20;6.40;;;;;;;18.93;100.00;98434.72;4951584;28;102759;-62
2021/07/28 04:42:02;;;;;;;5.82;5.32;;;;;;;18.91;100.00;98424.19;4947225;28;103373;-61
2021/07/28 04:44:30;;;;;;;10.05;8.27;;;;;;;18.81;100.00;98415.50;4952759;28;104511;-62
2021/07/28 04:46:59;;;;;;;8.30;7.55;;;;;;;18.77;100.00;98416.84;4949569;28;102650;-63
2021/07/28 04:49:28;;;;;;;8.50;7.65;;;;;;;18.68;100.00;98427.72;4952077;28;103361;-62
2021/07/28 04:51:56;;;;;;;9.38;8.45;;;;;;;18.61;100.00;98421.38;4935531;28;104528;-63
2021/07/28 04:54:24;;;;;;;9.27;8.40;;;;;;;18.61;100.00;98426.75;4959268;28;103035;-62
2021/07/28 04:56:52;;;;;;;8.10;6.95;;;;;;;18.76;100.00;98425.03;4941625;28;102635;-61
2021/07/28 04:59:20;;;;;;;10.20;8.63;;;;;;;18.84;100.00;98433.91;4957681;28;102676;-62
2021/07/28 05:01:48;;;;;;;26.67;11.20;;;;;;;18.45;100.00;98411.47;4957504;28;103318;-62
2021/07/28 05:04:16;;;;;;;8.57;7.82;;;;;;;18.40;100.00;98409.31;4961765;28;105586;-62
2021/07/28 05:06:46;;;;;;;10.70;8.88;;;;;;;18.39;100.00;98423.69;4959456;28;103045;-62
2021/07/28 05:09:15;;;;;;;6.95;6.30;;;;;;;18.64;100.00;98431.75;4955313;28;103033;-63
2021/07/28 05:11:44;;;;;;;6.82;6.18;;;;;;;18.76;100.00;98441.94;4953516;28;103906;-62
2021/07/28 05:14:12;;;;;;;6.70;6.07;;;;;;;18.98;100.00;98443.06;4937903;28;104354;-64
2021/07/28 05:16:40;;;;;;;5.68;5.25;;;;;;;19.02;100.00;98439.06;4955746;28;102603;-65
2021/07/28 05:19:08;;;;;;;6.15;5.65;;;;;;;19.14;100.00;98434.19;4942351;28;102917;-65
2021/07/28 05:21:37;;;;;;;4.95;4.55;;;;;;;19.27;100.00;98439.84;4956397;28;103471;-65
2021/07/28 05:24:06;;;;;;;6.35;5.80;;;;;;;19.41;100.00;98436.47;4955669;28;104502;-65
2021/07/28 05:26:34;;;;;;;5.00;4.60;;;;;;;19.46;100.00;98439.47;4953325;28;102821;-65
2021/07/28 05:29:03;;;;;;;7.50;6.82;;;;;;;19.50;100.00;98433.63;4939446;28;102917;-65
2021/07/28 05:31:31;;;;;;;6.68;6.07;;;;;;;19.54;100.00;98432.25;4957248;28;103353;-65
2021/07/28 05:33:59;;;;;;;7.90;7.20;;;;;;;19.57;100.00;98436.41;4960794;28;103252;-65
2021/07/28 05:36:27;;;;;;;5.97;5.47;;;;;;;19.64;100.00;98445.44;4959245;28;103147;-65
2021/07/28 05:38:55;;;;;;;5.90;5.25;;;;;;;19.65;100.00;98445.25;4939779;28;102771;-65
2021/07/28 05:41:25;;;;;;;5.80;5.30;;;;;;;19.64;100.00;98442.75;4955888;28;103413;-65
2021/07/28 05:43:53;;;;;;;5.50;5.10;;;;;;;19.73;100.00;98433.69;4938501;28;103832;-65
2021/07/28 05:46:21;;;;;;;6.50;6.00;;;;;;;19.65;100.00;98433.69;4960617;28;102710;-65
2021/07/28 05:48:49;;;;;;;5.70;5.20;;;;;;;19.67;100.00;98442.41;4957521;28;103753;-65
2021/07/28 05:51:17;;;;;;;7.45;6.75;;;;;;;19.76;99.53;98441.34;4959118;28;104604;-66
2021/07/28 05:53:45;;;;;;;5.70;5.30;;;;;;;19.83;99.46;98447.69;4977567;28;104185;-65
2021/07/28 05:56:14;;;;;;;6.57;6.03;;;;;;;19.87;100.00;98443.66;4976649;28;102656;-65
2021/07/28 05:58:43;;;;;;;7.63;6.93;;;;;;;19.92;99.85;98445.81;4979136;28;102695;-66
2021/07/28 06:01:11;;;;;;;8.52;7.72;;;;;;;19.94;99.30;98457.19;4971432;28;103516;-65
2021/07/28 06:03:39;;;;;;;7.32;6.60;;;;;;;19.83;100.00;98439.66;4978122;28;104382;-65
2021/07/28 06:06:08;;;;;;;9.68;8.77;;;;;;;19.80;100.00;98441.84;4960976;28;102996;-65
2021/07/28 06:08:36;;;;;;;7.68;6.97;;;;;;;20.02;100.00;98449.09;4974552;28;102818;-65
2021/07/28 06:11:04;;;;;;;10.10;9.20;;;;;;;19.96;99.34;98447.13;4976483;28;104840;-65
2021/07/28 06:13:32;;;;;;;9.05;8.30;;;;;;;19.72;100.00;98445.41;4976461;28;103108;-65
2021/07/28 06:16:01;;;;;;;6.97;6.38;;;;;;;19.95;100.00;98443.63;4980912;28;102886;-66
2021/07/28 06:18:29;;;;;;;5.90;5.38;;;;;;;20.08;99.71;98445.72;4975183;28;102837;-65
2021/07/28 06:20:57;;;;;;;5.82;5.32;;;;;;;20.03;98.44;98440.88;4972765;28;103384;-65
2021/07/28 06:23:25;;;;;;;7.13;5.93;;;;;;;20.06;97.93;98443.22;4966314;28;105659;-65
2021/07/28 06:25:54;;;;;;;8.77;7.07;;;;;;;19.96;96.29;98447.13;4947028;28;102705;-65
2021/07/28 06:28:22;;;;;;;7.13;6.32;;;;;;;20.01;96.01;98445.59;4975235;28;103008;-65
2021/07/28 06:30:51;;;;;;;5.80;5.30;;;;;;;20.09;95.38;98453.59;4971362;28;103471;-65
2021/07/28 06:33:22;;;;;;;6.20;5.60;;;;;;;20.00;97.19;98470.72;4974820;28;103208;-66
2021/07/28 06:35:51;;;;;;;6.63;5.95;;;;;;;20.00;96.73;98464.53;4961566;28;102957;-65
2021/07/28 06:38:20;;;;;;;6.47;5.60;;;;;;;19.92;95.59;98461.91;4969166;28;102714;-65
2021/07/28 06:40:48;;;;;;;5.75;5.22;;;;;;;19.95;96.03;98464.22;4973317;28;103626;-65
2021/07/28 06:43:17;;;;;;;6.20;5.60;;;;;;;19.91;94.97;98471.78;4963593;28;106139;-65
2021/07/28 06:45:45;;;;;;;6.85;6.25;;;;;;;19.86;94.94;98465.28;4947118;28;104564;-66
2021/07/28 06:48:13;;;;;;;5.50;5.00;;;;;;;19.84;96.12;98469.97;4976241;28;102723;-65
2021/07/28 06:50:43;;;;;;;4.60;4.20;;;;;;;19.99;96.32;98474.41;4975028;28;103448;-66
2021/07/28 06:53:11;;;;;;;4.60;3.97;;;;;;;20.03;96.82;98458.81;4949238;28;104480;-66
2021/07/28 06:55:39;;;;;;;6.43;5.85;;;;;;;19.51;99.59;98454.00;4955313;28;102591;-66
2021/07/28 06:58:07;;;;;;;7.95;7.18;;;;;;;19.28;100.00;98444.19;4966995;28;102654;-65
2021/07/28 07:00:35;;;;;;;6.55;5.22;;;;;;;19.26;100.00;98451.53;4965833;28;103930;-64
2021/07/28 07:03:04;;;;;;;5.90;5.28;;;;;;;19.60;99.40;98460.19;4952932;28;103390;-62
2021/07/28 07:05:32;;;;;;;7.07;5.90;;;;;;;19.78;99.49;98465.31;4963072;28;105314;-62
2021/07/28 07:08:02;;;;;;;5.85;5.38;;;;;;;19.90;99.98;98470.09;4965521;28;102646;-62
2021/07/28 07:10:30;;;;;;;5.45;4.82;;;;;;;19.98;99.07;98478.13;4965002;28;103537;-63
2021/07/28 07:12:58;;;;;;;5.63;5.13;;;;;;;20.14;97.42;98477.19;4954445;28;104409;-63
2021/07/28 07:15:26;;;;;;;4.50;4.20;;;;;;;20.27;96.49;98471.28;4968862;28;102795;-62
2021/07/28 07:17:54;;;;;;;4.63;4.20;;;;;;;20.36;95.94;98481.78;4969869;28;102670;-62
2021/07/28 07:20:23;;;;;;;4.43;4.03;;;;;;;20.33;95.37;98482.13;4959331;28;104704;-63
2021/07/28 07:22:51;;;;;;;5.30;4.90;;;;;;;20.24;94.22;98483.16;4965334;28;104632;-62
2021/07/28 07:25:21;;;;;;;4.60;4.25;;;;;;;20.23;92.97;98494.91;4949323;28;102764;-62
2021/07/28 07:27:49;;;;;;;5.82;4.55;;;;;;;20.05;93.08;98505.91;4968165;28;102750;-63
2021/07/28 07:30:17;;;;;;;4.65;4.28;;;;;;;20.22;93.98;98496.75;4963294;28;104668;-62
2021/07/28 07:33:36;;;;;;;5.70;4.63;;;;;;;20.29;93.28;98506.81;4949534;28;103083;-63
2021/07/28 07:35:34;;;;;;;5.18;4.68;;;;;;;20.29;92.38;98498.75;4970124;28;102761;-62
2021/07/28 07:38:02;;;;;;;4.90;4.40;;;;;;;20.44;92.58;98499.66;4963962;28;102606;-62
2021/07/28 07:40:32;;;;;;;6.65;5.97;;;;;;;20.31;92.09;98500.25;4948730;28;104405;-63
2021/07/28 07:43:00;;;;;;;6.07;5.47;;;;;;;20.39;91.20;98496.69;4970876;28;104372;-63
2021/07/28 07:45:28;;;;;;;6.57;5.43;;;;;;;20.51;92.04;98503.31;4957253;28;102666;-62
2021/07/28 07:47:56;;;;;;;5.68;4.90;;;;;;;20.63;91.86;98504.59;4966574;28;102659;-62
2021/07/28 07:50:24;;;;;;;4.95;4.45;;;;;;;20.57;92.70;98503.44;4969652;28;103454;-63
2021/07/28 07:52:52;;;;;;;5.05;4.65;;;;;;;20.57;92.31;98506.13;4940499;28;104383;-63
2021/07/28 07:55:20;;;;;;;5.57;5.07;;;;;;;20.43;91.78;98503.38;4955133;28;102966;-62
2021/07/28 07:57:50;;;;;;;5.90;5.40;;;;;;;20.42;91.69;98512.44;4960256;28;102786;-63
2021/07/28 08:00:20;;;;;;;6.97;5.45;;;;;;;20.48;91.02;98509.03;4960081;28;103423;-63
2021/07/28 08:02:48;;;;;;;5.30;4.80;;;;;;;20.45;90.47;98507.53;4956235;28;104453;-63
2021/07/28 08:05:16;;;;;;;5.28;4.78;;;;;;;20.21;91.97;98519.22;4961229;28;103836;-63
2021/07/28 08:07:44;;;;;;;6.20;5.60;;;;;;;20.20;92.53;98514.03;4939210;28;102716;-63
2021/07/28 08:10:13;;;;;;;6.65;5.20;;;;;;;20.05;91.63;98519.31;4935773;28;104362;-66
2021/07/28 08:12:41;;;;;;;6.80;5.50;;;;;;;20.21;91.94;98519.22;4961306;28;103577;-66
2021/07/28 08:15:11;;;;;;;5.35;4.88;;;;;;;20.30;93.23;98508.47;4955547;28;102664;-65
2021/07/28 08:17:39;;;;;;;5.35;4.22;;;;;;;20.36;91.86;98521.19;4956945;28;102832;-64
2021/07/28 08:20:08;;;;;;;6.35;5.60;;;;;;;20.24;91.56;98515.34;4954438;28;104446;-62
2021/07/28 08:22:36;;;;;;;6.18;5.60;;;;;;;20.03;91.73;98518.66;4920421;28;104623;-62
2021/07/28 08:25:05;;;;;;;6.00;5.40;;;;;;;20.21;90.33;98516.53;4957441;28;102660;-65
2021/07/28 08:27:33;;;;;;;6.15;5.45;;;;;;;20.24;90.24;98510.84;4954041;28;103300;-62
2021/07/28 08:30:02;;;;;;;6.30;5.10;;;;;;;20.31;89.06;98518.19;4955668;28;103608;-63
2021/07/28 08:32:31;;;;;;;6.10;4.82;;;;;;;20.32;88.81;98511.81;4955224;28;103142;-63
2021/07/28 08:34:59;;;;;;;5.63;5.13;;;;;;;20.22;89.93;98502.13;4957287;28;102657;-62
2021/07/28 08:37:28;;;;;;;5.25;4.72;;;;;;;20.37;89.11;98498.72;4961820;28;102769;-62
2021/07/28 08:39:56;;;;;;;7.53;5.20;;;;;;;20.54;87.51;98500.28;4936874;28;104611;-62
2021/07/28 08:42:29;;;;;;;5.70;4.88;;;;;;;20.72;87.12;98500.81;4957362;28;103126;-62
2021/07/28 08:44:57;;;;;;;6.50;5.90;;;;;;;20.64;87.32;98506.22;4953460;28;102753;-62
2021/07/28 08:47:27;;;;;;;6.15;4.82;;;;;;;20.78;87.28;98492.03;4957047;28;102815;-63
2021/07/28 08:49:57;;;;;;;5.60;5.10;;;;;;;20.67;86.46;98490.63;4937373;28;104850;-62
2021/07/28 08:52:28;;;;;;;6.68;6.07;;;;;;;20.70;85.98;98489.41;4950110;28;103565;-63
2021/07/28 08:54:56;;;;;;;6.18;5.68;;;;;;;20.98;85.91;98482.47;4954161;28;103062;-63
2021/07/28 08:57:24;;;;;;;6.45;5.85;;;;;;;20.74;84.08;98477.31;4953112;28;103321;-63
2021/07/28 08:59:57;;;;;;;5.38;4.88;;;;;;;20.77;85.41;98485.03;4958926;28;104630;-63
2021/07/28 09:02:25;;;;;;;6.07;5.47;;;;;;;21.05;84.55;98488.78;4956266;28;104275;-62
2021/07/28 09:04:55;;;;;;;6.97;5.97;;;;;;;21.01;83.65;98487.47;4955050;28;103232;-62
2021/07/28 09:07:24;;;;;;;8.20;6.10;;;;;;;20.80;83.01;98487.31;4957096;28;102650;-62
2021/07/28 09:09:55;;;;;;;6.93;6.00;;;;;;;20.86;83.50;98483.91;4955623;28;103381;-64
2021/07/28 09:12:32;;;;;;;5.78;5.18;;;;;;;21.22;84.21;98474.19;4951934;28;103186;-64
2021/07/28 09:15:03;;;;;;;7.68;5.55;;;;;;;21.59;81.97;98481.38;4955001;28;102587;-63
2021/07/28 09:17:35;;;;;;;6.07;5.47;;;;;;;21.72;80.07;98465.44;4960275;28;102674;-63
2021/07/28 09:20:06;;;;;;;5.70;5.15;;;;;;;21.85;79.74;98470.97;4951563;28;104615;-62
2021/07/28 09:22:41;;;;;;;5.55;5.05;;;;;;;22.21;78.53;98476.41;4955233;28;103183;-63
2021/07/28 09:25:15;;;;;;;6.15;5.55;;;;;;;22.02;77.94;98482.38;4960047;28;102631;-64
2021/07/28 09:27:45;;;;;;;5.15;4.68;;;;;;;21.99;76.79;98482.75;4951789;28;102633;-64
2021/07/28 09:30:17;;;;;;;5.47;4.93;;;;;;;22.21;75.22;98486.31;4956052;28;103704;-63
2021/07/28 09:33:03;;;;;;;4.78;4.38;;;;;;;22.45;75.71;98494.06;4949076;28;103239;-66
2021/07/28 09:36:08;;;;;;;5.22;4.80;;;;;;;22.65;74.88;98495.16;4954234;28;103271;-66
2021/07/28 09:38:43;;;;;;;5.30;4.80;;;;;;;22.68;72.89;98493.94;4955522;28;102724;-66
2021/07/28 09:41:21;;;;;;;5.65;5.13;;;;;;;22.36;73.60;98496.03;4958556;28;103625;-65
2021/07/28 09:43:52;;;;;;;4.93;4.40;;;;;;;22.41;73.40;98499.00;4958824;28;103457;-66
2021/07/28 09:46:27;;;;;;;5.13;4.60;;;;;;;23.00;72.44;98488.00;4951605;28;102833;-66
2021/07/28 09:48:56;;;;;;;5.50;4.80;;;;;;;22.77;70.92;98498.97;4952148;28;102806;-66
2021/07/28 09:51:27;;;;;;;4.45;4.13;;;;;;;23.15;72.63;98498.69;4940408;28;104963;-66
2021/07/28 09:53:59;;;;;;;6.13;5.10;;;;;;;23.26;72.18;98504.38;4966480;28;103142;-66
2021/07/28 09:56:45;;;;;;;5.72;4.95;;;;;;;23.30;70.31;98511.03;4962486;28;102892;-65
2021/07/28 09:59:14;;;;;;;6.32;5.47;;;;;;;23.33;70.48;98510.63;4961367;28;103233;-65
2021/07/28 10:01:44;;;;;;;5.20;4.63;;;;;;;23.04;70.76;98510.84;4946414;28;104465;-65
2021/07/28 10:04:13;;;;;;;4.55;4.15;;;;;;;23.94;68.58;98502.75;4946890;28;104322;-66
2021/07/28 10:06:43;;;;;;;5.90;4.78;;;;;;;24.10;68.90;98507.84;4947151;28;102715;-66
2021/07/28 10:09:16;;;;;;;5.53;4.93;;;;;;;23.98;67.78;98495.91;4965132;28;103128;-66
2021/07/28 10:11:45;;;;;;;6.18;4.90;;;;;;;23.57;69.37;98494.06;4966006;28;104497;-65
2021/07/28 10:14:18;;;;;;;11.10;5.38;;;;;;;24.06;69.26;98495.75;4960226;28;105391;-65
2021/07/28 10:16:47;;;;;;;7.05;4.97;;;;;;;24.06;69.37;98501.97;4965612;28;102923;-65
2021/07/28 10:19:16;;;;;;;4.75;4.40;;;;;;;24.15;67.71;98505.38;4964928;28;102778;-66
2021/07/28 10:21:54;;;;;;;6.97;5.10;;;;;;;23.98;67.50;98515.66;4961771;28;103372;-65
2021/07/28 10:24:24;;;;;;;5.43;4.13;;;;;;;24.28;66.67;98504.59;4968914;28;104361;-66
2021/07/28 10:26:55;;;;;;;5.47;4.55;;;;;;;24.02;66.44;98494.50;4962616;28;102671;-66
2021/07/28 10:29:29;;;;;;;5.10;4.35;;;;;;;24.29;66.21;98500.84;4968639;28;102778;-65
2021/07/28 10:31:58;;;;;;;4.35;3.78;;;;;;;23.94;66.40;98508.16;4962483;28;104409;-66
2021/07/28 10:34:27;;;;;;;4.93;4.20;;;;;;;23.33;67.03;98516.03;4960747;28;103284;-67
2021/07/28 10:37:01;;;;;;;4.20;3.90;;;;;;;23.87;67.96;98512.69;4958426;28;102619;-67
2021/07/28 10:39:41;;;;;;;5.15;4.00;;;;;;;23.76;67.36;98510.53;4964355;28;102621;-67
2021/07/28 10:42:14;;;;;;;5.95;4.50;;;;;;;23.51;68.08;98505.63;4964455;28;104765;-66
2021/07/28 10:45:04;;;;;;;4.80;4.40;;;;;;;23.84;67.29;98513.06;4940066;28;104559;-66
2021/07/28 10:47:40;;;;;;;5.72;4.38;;;;;;;23.71;67.66;98513.00;4962320;28;102586;-66
2021/07/28 10:50:30;;;;;;;5.70;4.40;;;;;;;23.83;67.55;98506.03;4954269;28;102808;-65
2021/07/28 10:52:59;;;;;;;6.22;4.72;;;;;;;23.98;66.51;98512.09;4958716;28;103568;-65
2021/07/28 10:55:30;;;;;;;5.63;4.53;;;;;;;24.21;65.28;98505.41;4961748;28;103411;-66
2021/07/28 10:58:25;;;;;;;4.25;3.85;;;;;;;24.79;67.07;98498.50;4941593;28;102661;-63
2021/07/28 11:00:58;;;;;;;6.90;4.93;;;;;;;25.13;64.50;98499.38;4965031;28;102860;-64
2021/07/28 11:03:31;;;;;;;4.82;4.35;;;;;;;24.66;63.51;98493.06;4964635;28;103423;-63
2021/07/28 11:06:23;;;;;;;4.45;4.07;;;;;;;24.20;65.36;98492.09;4965808;28;103045;-63
2021/07/28 11:08:53;;;;;;;4.78;4.35;;;;;;;24.32;64.87;98479.69;4955189;28;102978;-63
2021/07/28 11:11:28;;;;;;;5.10;4.55;;;;;;;23.93;65.19;98484.91;4942653;28;102699;-64
2021/07/28 11:14:03;;;;;;;4.70;4.30;;;;;;;24.26;64.11;98480.50;4958049;28;103724;-64
2021/07/28 11:16:35;;;;;;;5.18;4.32;;;;;;;24.42;64.12;98479.31;4961733;28;111082;-62
2021/07/28 11:19:04;;;;;;;4.82;4.40;;;;;;;24.82;63.30;98474.81;4951411;28;102765;-64
2021/07/28 11:21:33;;;;;;;5.35;4.85;;;;;;;25.04;62.37;98487.13;4950068;28;104505;-64
2021/07/28 11:24:05;;;;;;;4.50;4.10;;;;;;;25.58;61.35;98482.31;4968270;28;104534;-64
2021/07/28 11:26:37;;;;;;;4.80;4.13;;;;;;;25.58;60.72;98486.88;4968867;28;103234;-64
2021/07/28 11:29:07;;;;;;;5.03;4.45;;;;;;;25.65;60.46;98477.72;4934233;28;102583;-64
2021/07/28 11:31:38;;;;;;;4.00;3.67;;;;;;;26.02;58.72;98478.84;4962923;28;102969;-64
2021/07/28 11:34:13;;;;;;;5.90;3.97;;;;;;;26.96;59.41;98478.97;4966665;28;104499;-66
2021/07/28 11:36:43;;;;;;;5.90;3.90;;;;;;;26.72;58.02;98480.59;4959076;28;103198;-67